createdAt,value
2019-03-30T00:04:50.913Z,7.13
2019-03-30T00:09:47.220Z,7.51
2019-03-30T00:14:43.238Z,6.90
2019-03-30T00:19:40.092Z,7.17
2019-03-30T00:24:36.743Z,7.03
2019-03-30T00:29:32.675Z,6.79
2019-03-30T00:34:28.592Z,6.99
2019-03-30T00:39:24.509Z,7.30
2019-03-30T00:44:20.421Z,6.99
2019-03-30T00:49:16.331Z,6.63
2019-03-30T00:54:15.912Z,6.43
2019-03-30T00:59:11.933Z,6.26
2019-03-30T01:04:07.842Z,6.00
2019-03-30T01:09:05.502Z,5.98
2019-03-30T01:14:01.415Z,5.83
2019-03-30T01:18:57.351Z,6.00
2019-03-30T01:23:53.941Z,6.10
2019-03-30T01:28:49.878Z,5.92
2019-03-30T01:33:45.786Z,5.94
2019-03-30T01:38:41.695Z,6.37
2019-03-30T01:43:37.608Z,6.38
2019-03-30T01:48:33.578Z,5.83
2019-03-30T01:53:29.457Z,5.61
2019-03-30T01:58:25.395Z,5.49
2019-03-30T02:03:21.305Z,5.44
2019-03-30T02:08:17.218Z,5.44
2019-03-30T02:13:13.150Z,5.33
2019-03-30T02:18:09.161Z,5.17
2019-03-30T02:23:05.276Z,5.18
2019-03-30T02:28:01.187Z,5.17
2019-03-30T02:32:57.199Z,5.09
2019-03-30T02:37:53.111Z,5.07
2019-03-30T02:42:49.027Z,5.14
2019-03-30T02:47:44.946Z,5.14
2019-03-30T02:52:40.876Z,5.19
2019-03-30T02:57:36.813Z,5.68
2019-03-30T03:02:32.807Z,5.95
2019-03-30T03:07:28.729Z,5.86
2019-03-30T03:12:24.641Z,5.83
2019-03-30T03:17:20.561Z,5.78
2019-03-30T03:22:16.488Z,5.24
2019-03-30T03:27:12.371Z,5.67
2019-03-30T03:32:08.309Z,5.25
2019-03-30T03:37:04.260Z,5.39
2019-03-30T03:42:00.259Z,5.09
2019-03-30T03:46:56.190Z,5.26
2019-03-30T03:51:52.179Z,5.44
2019-03-30T03:56:48.219Z,5.08
2019-03-30T04:01:45.564Z,4.85
2019-03-30T04:06:43.398Z,4.71
2019-03-30T04:11:39.409Z,5.10
2019-03-30T04:16:35.322Z,5.08
2019-03-30T04:21:43.859Z,4.60
2019-03-30T04:26:29.135Z,4.52
2019-03-30T04:31:25.062Z,4.34
2019-03-30T04:36:21.025Z,4.74
2019-03-30T04:41:16.918Z,5.05
2019-03-30T04:46:12.927Z,4.93
2019-03-30T04:51:08.851Z,4.48
2019-03-30T04:56:04.908Z,4.57
2019-03-30T05:01:00.860Z,4.95
2019-03-30T05:05:56.785Z,4.48
2019-03-30T05:10:52.698Z,4.61
2019-03-30T05:15:48.715Z,4.71
2019-03-30T05:20:44.623Z,4.52
2019-03-30T05:25:40.885Z,4.57
2019-03-30T05:30:38.201Z,4.85
2019-03-30T05:35:34.975Z,5.78
2019-03-30T05:40:31.235Z,7.06
2019-03-30T05:45:27.194Z,8.90
2019-03-30T05:50:23.102Z,9.71
2019-03-30T05:55:19.018Z,10.97
2019-03-30T06:00:17.236Z,12.28
2019-03-30T06:05:13.279Z,12.98
2019-03-30T06:10:09.498Z,13.24
2019-03-30T06:15:12.431Z,13.28
2019-03-30T06:20:11.460Z,13.89
2019-03-30T06:25:09.378Z,14.58
2019-03-30T06:30:17.964Z,14.79
2019-03-30T06:35:14.063Z,14.65
2019-03-30T06:40:12.043Z,14.02
2019-03-30T06:45:11.393Z,13.43
2019-03-30T06:50:11.415Z,12.83
2019-03-30T06:55:09.607Z,12.47
2019-03-30T07:00:09.202Z,12.46
2019-03-30T07:05:09.580Z,12.63
2019-03-30T07:10:06.194Z,12.89
2019-03-30T07:15:02.827Z,12.97
2019-03-30T07:20:00.959Z,13.13
2019-03-30T07:24:57.503Z,13.19
2019-03-30T07:29:53.632Z,13.24
2019-03-30T07:34:51.465Z,13.59
2019-03-30T07:39:48.571Z,13.65
2019-03-30T07:44:44.602Z,13.75
2019-03-30T07:49:40.531Z,13.93
2019-03-30T07:54:38.051Z,14.25
2019-03-30T07:59:33.951Z,14.34
2019-03-30T08:04:29.865Z,14.34
2019-03-30T08:09:25.873Z,14.61
2019-03-30T08:14:21.786Z,14.91
2019-03-30T08:19:17.697Z,15.41
2019-03-30T08:24:15.740Z,15.11
2019-03-30T08:29:14.807Z,15.44
2019-03-30T08:34:10.806Z,14.99
2019-03-30T08:39:06.714Z,14.63
2019-03-30T08:44:02.755Z,15.36
2019-03-30T08:48:58.667Z,15.84
2019-03-30T08:53:55.186Z,16.28
2019-03-30T08:58:51.227Z,15.06
2019-03-30T09:03:50.351Z,15.49
2019-03-30T09:08:46.257Z,15.77
2019-03-30T09:13:42.410Z,16.23
2019-03-30T09:18:38.356Z,16.10
2019-03-30T09:23:34.289Z,16.10
2019-03-30T09:28:30.608Z,16.03
2019-03-30T09:33:26.531Z,16.70
2019-03-30T09:38:22.452Z,17.32
2019-03-30T09:43:18.377Z,17.06
2019-03-30T09:48:16.779Z,17.34
2019-03-30T09:53:12.688Z,17.24
2019-03-30T09:58:09.043Z,16.98
2019-03-30T10:03:06.268Z,17.81
2019-03-30T10:08:03.493Z,17.70
2019-03-30T10:12:59.624Z,16.88
2019-03-30T10:17:55.584Z,17.38
2019-03-30T10:22:52.746Z,18.48
2019-03-30T10:27:48.659Z,18.87
2019-03-30T10:32:44.577Z,18.76
2019-03-30T10:37:40.486Z,17.45
2019-03-30T10:42:39.173Z,17.71
2019-03-30T10:47:35.269Z,18.51
2019-03-30T10:52:31.179Z,19.18
2019-03-30T10:57:27.115Z,19.42
2019-03-30T11:02:23.036Z,18.25
2019-03-30T11:07:18.957Z,18.98
2019-03-30T11:12:14.966Z,17.89
2019-03-30T11:17:10.880Z,18.05
2019-03-30T11:22:06.786Z,18.79
2019-03-30T11:27:02.902Z,17.85
2019-03-30T11:31:58.814Z,17.63
2019-03-30T11:36:54.726Z,17.92
2019-03-30T11:41:50.642Z,17.86
2019-03-30T11:46:46.555Z,18.38
2019-03-30T11:51:42.469Z,18.66
2019-03-30T11:56:38.408Z,19.05
2019-03-30T12:01:34.923Z,18.28
2019-03-30T12:06:30.832Z,18.18
2019-03-30T12:11:26.749Z,18.71
2019-03-30T12:16:22.664Z,18.81
2019-03-30T12:21:18.570Z,19.59
2019-03-30T12:26:14.486Z,19.43
2019-03-30T12:31:10.395Z,19.13
2019-03-30T12:36:06.376Z,19.60
2019-03-30T12:41:02.281Z,19.52
2019-03-30T12:45:58.195Z,19.86
2019-03-30T12:50:54.278Z,19.09
2019-03-30T12:55:50.226Z,19.79
2019-03-30T13:00:46.641Z,19.40
2019-03-30T13:05:42.552Z,19.83
2019-03-30T13:10:38.462Z,19.18
2019-03-30T13:15:34.475Z,18.48
2019-03-30T13:20:30.410Z,18.86
2019-03-30T13:25:27.519Z,18.32
2019-03-30T13:30:23.491Z,18.79
2019-03-30T13:35:19.436Z,19.21
2019-03-30T13:40:15.353Z,18.74
2019-03-30T13:45:11.365Z,18.78
2019-03-30T13:50:07.674Z,18.99
2019-03-30T13:55:09.509Z,19.02
2019-03-30T14:00:06.646Z,18.54
2019-03-30T14:05:04.056Z,18.80
2019-03-30T14:09:59.981Z,18.42
2019-03-30T14:14:57.125Z,18.38
2019-03-30T14:19:53.463Z,18.89
2019-03-30T14:24:50.067Z,18.72
2019-03-30T14:29:48.759Z,18.17
2019-03-30T14:34:44.677Z,18.50
2019-03-30T14:39:40.589Z,18.40
2019-03-30T14:44:36.497Z,18.82
2019-03-30T14:49:32.493Z,18.86
2019-03-30T14:54:35.310Z,18.87
2019-03-30T14:59:31.401Z,18.77
2019-03-30T15:04:27.309Z,18.32
2019-03-30T15:09:23.289Z,18.38
2019-03-30T15:14:19.238Z,18.08
2019-03-30T15:19:15.159Z,18.01
2019-03-30T15:24:16.285Z,17.93
2019-03-30T15:29:12.254Z,18.12
2019-03-30T15:34:08.265Z,17.90
2019-03-30T15:39:05.532Z,17.89
2019-03-30T15:44:01.846Z,17.58
2019-03-30T15:48:59.060Z,17.75
2019-03-30T15:53:56.197Z,17.69
2019-03-30T15:58:52.138Z,17.55
2019-03-30T16:03:48.050Z,17.56
2019-03-30T16:08:43.966Z,17.47
2019-03-30T16:13:39.879Z,17.25
2019-03-30T16:18:35.795Z,17.20
2019-03-30T16:23:31.705Z,17.24
2019-03-30T16:28:27.617Z,17.23
2019-03-30T16:33:23.531Z,17.22
2019-03-30T16:38:19.570Z,17.38
2019-03-30T16:43:15.478Z,17.66
2019-03-30T16:48:14.597Z,17.47
2019-03-30T16:53:09.199Z,17.34
2019-03-30T16:58:05.139Z,17.34
2019-03-30T17:03:02.055Z,17.67
2019-03-30T17:07:57.969Z,17.63
2019-03-30T17:12:53.883Z,17.75
2019-03-30T17:17:49.810Z,18.08
2019-03-30T17:22:45.698Z,17.42
2019-03-30T17:27:41.611Z,17.28
2019-03-30T17:32:37.621Z,17.16
2019-03-30T17:37:33.538Z,16.58
2019-03-30T17:42:29.476Z,16.45
2019-03-30T17:47:25.382Z,16.16
2019-03-30T17:52:21.294Z,16.10
2019-03-30T17:57:17.747Z,16.01
2019-03-30T18:02:13.855Z,15.94
2019-03-30T18:07:13.429Z,15.82
2019-03-30T18:12:08.391Z,15.65
2019-03-30T18:17:04.540Z,15.70
2019-03-30T18:22:00.547Z,15.54
2019-03-30T18:26:56.542Z,14.98
2019-03-30T18:31:53.568Z,14.43
2019-03-30T18:36:49.780Z,13.87
2019-03-30T18:41:45.787Z,13.46
2019-03-30T18:46:41.699Z,13.17
2019-03-30T18:51:40.618Z,12.87
2019-03-30T18:56:36.553Z,12.47
2019-03-30T19:01:32.467Z,12.31
2019-03-30T19:06:28.384Z,12.08
2019-03-30T19:11:24.303Z,12.05
2019-03-30T19:16:20.226Z,12.39
2019-03-30T19:21:16.136Z,11.61
2019-03-30T19:26:12.055Z,11.88
2019-03-30T19:31:07.970Z,11.90
2019-03-30T19:36:03.890Z,11.89
2019-03-30T19:40:59.906Z,11.60
2019-03-30T19:45:55.823Z,11.28
2019-03-30T19:50:51.739Z,10.80
2019-03-30T19:55:47.682Z,10.47
2019-03-30T20:00:43.608Z,10.14
2019-03-30T20:05:39.525Z,10.14
2019-03-30T20:10:35.546Z,10.18
2019-03-30T20:15:31.596Z,10.01
2019-03-30T20:20:27.506Z,10.07
2019-03-30T20:25:26.026Z,10.09
2019-03-30T20:30:24.374Z,10.00
2019-03-30T20:35:20.213Z,10.36
2019-03-30T20:40:16.151Z,10.62
2019-03-30T20:45:13.673Z,10.60
2019-03-30T20:50:09.711Z,10.17
2019-03-30T20:55:06.542Z,9.58
2019-03-30T21:00:05.657Z,9.31
2019-03-30T21:05:01.785Z,9.21
2019-03-30T21:09:57.702Z,9.89
2019-03-30T21:14:53.640Z,9.75
2019-03-30T21:19:50.674Z,9.32
2019-03-30T21:24:47.346Z,9.40
2019-03-30T21:29:54.651Z,9.63
2019-03-30T21:34:44.826Z,9.69
2019-03-30T21:39:40.751Z,9.46
2019-03-30T21:44:36.657Z,9.71
2019-03-30T21:49:32.575Z,9.53
2019-03-30T21:54:34.561Z,9.76
2019-03-30T21:59:30.605Z,10.14
2019-03-30T22:04:26.513Z,10.13
2019-03-30T22:09:22.441Z,10.78
2019-03-30T22:14:18.441Z,10.80
2019-03-30T22:19:14.351Z,11.19
2019-03-30T22:24:16.122Z,11.28
2019-03-30T22:29:12.131Z,11.15
2019-03-30T22:34:08.051Z,11.08
2019-03-30T22:39:05.159Z,11.00
2019-03-30T22:44:01.183Z,11.01
2019-03-30T22:48:57.185Z,10.77
2019-03-30T22:53:53.680Z,10.27
2019-03-30T22:58:49.618Z,9.89
2019-03-30T23:03:45.634Z,9.93
2019-03-30T23:08:41.554Z,9.56
2019-03-30T23:13:38.204Z,9.37
2019-03-30T23:18:34.227Z,9.44
2019-03-30T23:23:30.140Z,9.24
2019-03-30T23:28:26.054Z,8.88
2019-03-30T23:33:22.035Z,9.12
2019-03-30T23:38:17.943Z,9.40
2019-03-30T23:43:13.854Z,9.08
2019-03-30T23:48:09.771Z,9.35
2019-03-30T23:53:07.424Z,9.29
2019-03-30T23:58:04.887Z,9.27
